« ### RJNT log 201811 ### | トップページ | 基地創設60周年記念入間航空祭【飛行展示編1】 入間飛行場 2018/11/3 sat »

2018/11/04

基地創設60周年記念入間航空祭【B.I.編】 入間飛行場 2018/11/3 sat

晴れの特異日文化の日(明治節) 今年も見事に晴れ渡り、美しい青空。例年と同じぐらいに稲荷山公園に到着したのだが、なんか変。すでに開門済み。どんどん進んでエプロン進入路入口までストレートにたどりついてしまいました。人も少なかったなぁ。今年は主催者発表19万人。土曜日と重なったからなのかな。

METAR RJTJ 030400Z 17006KT 140V230 9999 FEW030 SCT090 19/05 Q1023
RMK 1CU030 3AC090 A3023

20181103_rjtj_100bi365706

例年のシルバーラインからちょと歌舞伎よりに陣とって、ブルーも見えるかなぁと思っていたのですが・・・

20181103_rjtj_101bi393042

飴ちゃんが欠席になったせいか、ここに列線がつくられて、チェッカーにがっつりブロックされてしまいました。

METAR RJTJ 030500Z 18007KT 140V220 9999 FEW030 20/04 Q1023 RMK
1CU030 A3022

20181103_rjtj_102bi265690

よってタクシーアウトをチェッカーのおなかの隙間から辛うじて

20181103_rjtj_103bi121160

目の前には、YSチェッカーに睨まれています。

20181103_rjtj_104bi

キャー、YSさんの翼

20181103_rjtj_105bi

横風ぎみで、離陸はインディピイ

20181103_rjtj_106bi_2

素早く編隊集合して、スモック

20181103_rjtj_107bi

20181103_rjtj_108bi

20181103_rjtj_109bi

ダーティーターン

20181103_rjtj_110bi065790

20181103_rjtj_111bi165666

ロールオン・テイクオフ

20181103_rjtj_112bi065790

歌舞伎はここ

20181103_rjtj_113bi065790

20181103_rjtj_114bi065790_3

ローアングル・キューバン

20181103_rjtj_115bi

ファン・ブレイク

20181103_rjtj_116bi

管制塔が新しくなりました。

20181103_rjtj_117bi065790

1区分 フォー・ポイント・ロール

20181103_rjtj_118bi

20181103_rjtj_119bi

20181103_rjtj_120bi

20181103_rjtj_121bi

20181103_rjtj_122bi

チェンジ・オーバー・ターン

20181103_rjtj_123bi065790

20181103_rjtj_124bi065790

20181103_rjtj_125bi

インバーテッド&コンテュニアス・ロール

20181103_rjtj_126bi

20181103_rjtj_127bi

20181103_rjtj_128bi

サンライズ

20181103_rjtj_129bi065790

20181103_rjtj_130bi065790

バーティカル・クライム・ロール

20181103_rjtj_131bi165666

スロー・ロール

20181103_rjtj_132bi

20181103_rjtj_133bi

20181103_rjtj_134bi

20181103_rjtj_135bi

20181103_rjtj_136bi

チェンジ・オーバー・ループ

20181103_rjtj_137bi

20181103_rjtj_138bi

ハーフ・スロー・ロール

20181103_rjtj_139bi

20181103_rjtj_140bi

20181103_rjtj_141bi

20181103_rjtj_142bi

20181103_rjtj_143bi_2

20181103_rjtj_144bi_2

20181103_rjtj_145bi_2

レター・エイト

20181103_rjtj_146bi

ここでストレンジャー接近により、ストップミッション

20181103_rjtj_147bi

4機2機が場所を確認して・・

20181103_rjtj_148bi

集合してホールドへ・・ ミッション再開は、いろいろ変わって

20181103_rjtj_149bi

#5,#6から

20181103_rjtj_150bi

#4が整のわなかったので

20181103_rjtj_151bi

矢無キューピッド

20181103_rjtj_152bi

残る4機は

20181103_rjtj_153bi

正面から

20181103_rjtj_154bi

20181103_rjtj_155bi

20181103_rjtj_156bi

20181103_rjtj_157bi

シングル・クローバーリーフ・ターン

20181103_rjtj_158bi

20181103_rjtj_159bi

20181103_rjtj_160bi

METAR RJTJ 030500Z 18007KT 140V220 9999 FEW030 20/04 Q1023 RMK
1CU030 A302

20181103_rjtj_161bi

スリー・シックスティー&ループ

20181103_rjtj_162bi

20181103_rjtj_163bi

20181103_rjtj_164bi

20181103_rjtj_165bi

20181103_rjtj_166bi

ワイド・トゥ・デルタ・ループ

20181103_rjtj_167bi

20181103_rjtj_168bi

20181103_rjtj_169bi

20181103_rjtj_170bi

20181103_rjtj_171bi

デルタ・ロール

20181103_rjtj_172bi

20181103_rjtj_173bi

20181103_rjtj_174bi

20181103_rjtj_175bi

20181103_rjtj_176bi

20181103_rjtj_177bi

フェニックス・ループ

20181103_rjtj_178bi

20181103_rjtj_179bi

20181103_rjtj_180bi

20181103_rjtj_181bi

ボントン・ロール

20181103_rjtj_182bi

再度科目組立直しで・・

20181103_rjtj_183bi

20181103_rjtj_184bi

20181103_rjtj_185bi

キャークロス撮れんだ

20181103_rjtj_186bi

20181103_rjtj_187bi

タック・クロスI

20181103_rjtj_188bi

20181103_rjtj_189bi

20181103_rjtj_190bi

20181103_rjtj_191bi

20181103_rjtj_192bi

ローリング・コンバット・ピッチ

20181103_rjtj_193bi

20181103_rjtj_194bi

20181103_rjtj_195bi

20181103_rjtj_196bi

コーク・スクリュー

20181103_rjtj_197bi665745

20181103_rjtj_198bi665745

#1 66-5745

20181103_rjtj_199bi265690

#2 26-5690

20181103_rjtj_200bi265692

#3 26-5692

20181103_rjtj_201bi465731

#4 46-5731

20181103_rjtj_202bi065790

#5 06-5790

20181103_rjtj_203bi165666_2

#6 16-5666

20181103_rjtj_205bi665745

20181103_rjtj_206bi

20181103_rjtj_207bi165666

20181103_rjtj_208bi665745

お手ふりいただきました。

20181103_rjtj_209bi265686

結局、ブルー列線に近づけなかったので、予備機を歌舞伎と

26-5686

変則な1区分となったので、矢のないバーチカル・キューピッドを見れて、これも乙なもの。

|

« ### RJNT log 201811 ### | トップページ | 基地創設60周年記念入間航空祭【飛行展示編1】 入間飛行場 2018/11/3 sat »

BI」カテゴリの記事

入間飛行場」カテゴリの記事

コメント

コメントを書く



(ウェブ上には掲載しません)


コメントは記事投稿者が公開するまで表示されません。



トラックバック


この記事へのトラックバック一覧です: 基地創設60周年記念入間航空祭【B.I.編】 入間飛行場 2018/11/3 sat:

« ### RJNT log 201811 ### | トップページ | 基地創設60周年記念入間航空祭【飛行展示編1】 入間飛行場 2018/11/3 sat »